createdAt,value
2022-08-31T00:02:46.548Z,97679.69
2022-08-31T00:06:53.920Z,97678.06
2022-08-31T00:10:57.979Z,97682.13
2022-08-31T00:15:01.780Z,97684.19
2022-08-31T00:19:07.622Z,97681.13
2022-08-31T00:23:14.102Z,97687.00
2022-08-31T00:27:17.397Z,97684.22
2022-08-31T00:31:21.213Z,97689.88
2022-08-31T00:35:29.613Z,97696.97
2022-08-31T00:39:32.806Z,97692.94
2022-08-31T00:43:40.229Z,97687.66
2022-08-31T00:47:43.459Z,97689.69
2022-08-31T00:51:51.842Z,97693.97
2022-08-31T00:55:55.599Z,97689.47
2022-08-31T01:00:00.846Z,97690.28
2022-08-31T01:04:05.237Z,97693.75
2022-08-31T01:08:10.727Z,97686.22
2022-08-31T01:12:14.694Z,97691.09
2022-08-31T01:16:22.765Z,97693.31
2022-08-31T01:20:33.121Z,97696.38
2022-08-31T01:24:40.158Z,97687.44
2022-08-31T01:28:43.792Z,97685.00
2022-08-31T01:32:47.454Z,97681.75
2022-08-31T01:36:52.957Z,97683.78
2022-08-31T01:41:02.584Z,97679.72
2022-08-31T01:45:07.391Z,97679.34
2022-08-31T01:49:11.542Z,97680.56
2022-08-31T01:53:15.360Z,97679.75
2022-08-31T01:57:24.460Z,97685.63
2022-08-31T02:01:40.607Z,97681.78
2022-08-31T02:05:45.079Z,97678.72
2022-08-31T02:09:48.683Z,97673.25
2022-08-31T02:13:53.837Z,97665.91
2022-08-31T02:17:57.006Z,97661.47
2022-08-31T02:22:00.492Z,97659.66
2022-08-31T02:26:04.408Z,97657.81
2022-08-31T02:30:11.664Z,97656.59
2022-08-31T02:34:17.820Z,97661.06
2022-08-31T02:38:23.841Z,97661.88
2022-08-31T02:42:33.061Z,97664.50
2022-08-31T02:46:52.764Z,97656.16
2022-08-31T02:50:56.454Z,97658.78
2022-08-31T02:55:00.192Z,97651.91
2022-08-31T02:59:03.340Z,97649.28
2022-08-31T03:03:08.493Z,97654.56
2022-08-31T03:07:12.087Z,97652.94
2022-08-31T03:11:16.100Z,97649.69
2022-08-31T03:15:21.905Z,97659.25
2022-08-31T03:19:26.403Z,97649.69
2022-08-31T03:23:30.062Z,97656.81
2022-08-31T03:27:33.816Z,97658.63
2022-08-31T03:31:37.088Z,97662.28
2022-08-31T03:35:44.414Z,97672.00
2022-08-31T03:39:48.244Z,97660.66
2022-08-31T03:43:52.446Z,97662.28
2022-08-31T03:47:56.511Z,97662.09
2022-08-31T03:52:02.731Z,97662.66
2022-08-31T03:56:08.553Z,97668.75
2022-08-31T04:00:13.192Z,97659.41
2022-08-31T04:04:16.914Z,97659.00
2022-08-31T04:08:22.313Z,97655.13
2022-08-31T04:12:25.407Z,97668.72
2022-08-31T04:16:29.336Z,97672.97
2022-08-31T04:20:36.268Z,97663.03
2022-08-31T04:24:41.120Z,97673.59
2022-08-31T04:28:44.403Z,97667.50
2022-08-31T04:32:47.968Z,97669.09
2022-08-31T04:36:51.592Z,97666.66
2022-08-31T04:40:56.919Z,97666.66
2022-08-31T04:45:00.510Z,97669.91
2022-08-31T04:49:03.636Z,97674.38
2022-08-31T04:53:07.599Z,97678.88
2022-08-31T04:57:12.708Z,97682.09
2022-08-31T05:01:18.233Z,97680.06
2022-08-31T05:05:21.410Z,97694.44
2022-08-31T05:09:25.550Z,97704.19
2022-08-31T05:13:30.581Z,97700.72
2022-08-31T05:17:33.912Z,97698.84
2022-08-31T05:21:39.125Z,97702.84
2022-08-31T05:25:45.478Z,97706.31
2022-08-31T05:29:50.449Z,97706.69
2022-08-31T05:33:54.041Z,97718.03
2022-08-31T05:37:57.717Z,97715.13
2022-08-31T05:42:00.853Z,97715.91
2022-08-31T05:46:10.419Z,97716.47
2022-08-31T05:50:14.248Z,97721.28
2022-08-31T05:54:18.877Z,97713.72
2022-08-31T05:58:22.590Z,97717.25
2022-08-31T06:02:27.661Z,97719.84
2022-08-31T06:06:33.468Z,97713.50
2022-08-31T06:10:37.165Z,97716.25
2022-08-31T06:14:45.620Z,97721.25
2022-08-31T06:18:53.709Z,97725.22
2022-08-31T06:22:57.134Z,97721.72
2022-08-31T06:27:02.243Z,97724.50
2022-08-31T06:31:12.827Z,97722.59
2022-08-31T06:35:21.011Z,97719.69
2022-08-31T06:39:24.515Z,97729.97
2022-08-31T06:43:28.246Z,97728.72
2022-08-31T06:47:32.907Z,97732.69
2022-08-31T06:51:38.845Z,97727.47
2022-08-31T06:55:42.032Z,97725.91
2022-08-31T06:59:46.004Z,97725.16
2022-08-31T07:03:51.045Z,97722.53
2022-08-31T07:07:56.037Z,97721.44
2022-08-31T07:11:59.844Z,97722.03
2022-08-31T07:16:09.188Z,97727.44
2022-08-31T07:20:12.801Z,97729.09
2022-08-31T07:24:24.927Z,97740.25
2022-08-31T07:28:30.208Z,97737.59
2022-08-31T07:32:33.941Z,97734.72
2022-08-31T07:36:58.390Z,97739.63
2022-08-31T07:41:21.007Z,97738.72
2022-08-31T07:45:30.219Z,97748.78
2022-08-31T07:49:36.152Z,97746.97
2022-08-31T07:53:47.695Z,97752.31
2022-08-31T07:57:55.338Z,97750.25
2022-08-31T08:02:01.416Z,97746.03
2022-08-31T08:06:13.595Z,97745.66
2022-08-31T08:10:24.386Z,97679.91
2022-08-31T08:14:42.181Z,97728.72
2022-08-31T08:18:46.764Z,97756.53
2022-08-31T08:28:41.123Z,97757.13
2022-08-31T08:32:48.384Z,97751.16
2022-08-31T08:36:52.721Z,97752.06
2022-08-31T08:40:55.864Z,97758.13
2022-08-31T08:44:59.837Z,97763.91
2022-08-31T08:49:16.786Z,97773.56
2022-08-31T08:53:26.007Z,97780.13
2022-08-31T08:57:32.384Z,97792.75
2022-08-31T09:01:37.951Z,97783.06
2022-08-31T09:06:00.471Z,97796.09
2022-08-31T09:10:09.352Z,97810.34
2022-08-31T09:14:31.599Z,97817.97
2022-08-31T09:18:46.167Z,97815.22
2022-08-31T09:22:53.008Z,97819.22
2022-08-31T09:27:18.236Z,97811.25
2022-08-31T09:31:36.111Z,97817.41
2022-08-31T09:35:42.268Z,97820.41
2022-08-31T09:39:48.976Z,97833.50
2022-08-31T09:43:53.676Z,97835.63
2022-08-31T09:48:01.905Z,97833.00
2022-08-31T09:52:21.402Z,97831.19
2022-08-31T09:56:27.230Z,97834.50
2022-08-31T10:00:36.800Z,97841.44
2022-08-31T10:04:51.781Z,97846.13
2022-08-31T10:09:00.565Z,97841.88
2022-08-31T10:13:10.205Z,97848.41
2022-08-31T10:17:17.600Z,97861.19
2022-08-31T10:21:28.951Z,97855.75
2022-08-31T10:25:41.517Z,97862.47
2022-08-31T10:29:54.287Z,97855.75
2022-08-31T10:34:17.504Z,97868.75
2022-08-31T10:38:27.828Z,97869.78
2022-08-31T10:42:38.097Z,97855.94
2022-08-31T10:46:43.901Z,97869.97
2022-08-31T10:51:06.030Z,97877.91
2022-08-31T10:55:16.067Z,97882.75
2022-08-31T10:59:31.573Z,97877.91
2022-08-31T11:04:10.783Z,97869.16
2022-08-31T11:08:35.801Z,97869.75
2022-08-31T11:12:44.622Z,97880.06
2022-08-31T11:17:19.759Z,97887.78
2022-08-31T11:22:00.863Z,97891.84
2022-08-31T11:26:42.739Z,97895.09
2022-08-31T11:30:51.135Z,97882.50
2022-08-31T11:34:57.869Z,97889.41
2022-08-31T11:39:35.786Z,97883.09
2022-08-31T11:43:52.992Z,97883.91
2022-08-31T11:47:56.779Z,97884.13
2022-08-31T11:52:10.477Z,97887.38
2022-08-31T11:56:17.663Z,97885.31
2022-08-31T12:00:22.849Z,97895.50
2022-08-31T12:05:03.165Z,97897.06
2022-08-31T12:09:25.059Z,97890.78
2022-08-31T12:13:39.216Z,97889.97
2022-08-31T12:17:56.425Z,97897.06
2022-08-31T12:22:25.700Z,97896.09
2022-08-31T12:26:50.028Z,97902.81
2022-08-31T12:31:00.211Z,97901.97
2022-08-31T12:35:15.984Z,97908.50
2022-08-31T12:39:23.402Z,97902.03
2022-08-31T12:43:30.980Z,97904.03
2022-08-31T12:47:50.157Z,97916.03
2022-08-31T12:52:00.875Z,97919.13
2022-08-31T12:56:12.530Z,97906.31
2022-08-31T13:00:23.307Z,97908.94
2022-08-31T13:04:29.732Z,97901.25
2022-08-31T13:08:37.759Z,97905.31
2022-08-31T13:12:42.165Z,97901.28
2022-08-31T13:16:50.119Z,97901.84
2022-08-31T13:21:06.093Z,97905.34
2022-08-31T13:25:17.635Z,97908.78
2022-08-31T13:29:25.770Z,97912.22
2022-08-31T13:33:32.474Z,97903.28
2022-08-31T13:37:42.830Z,97902.47
2022-08-31T13:42:06.463Z,97902.28
2022-08-31T13:46:09.696Z,97914.25
2022-08-31T13:50:21.875Z,97910.38
2022-08-31T13:54:32.850Z,97909.78
2022-08-31T13:58:41.090Z,97902.47
2022-08-31T14:02:45.700Z,97911.19
2022-08-31T14:06:53.221Z,97908.56
2022-08-31T14:15:21.310Z,97908.75
2022-08-31T14:19:38.965Z,97908.75
2022-08-31T14:23:43.433Z,97906.31
2022-08-31T14:27:47.178Z,97909.97
2022-08-31T14:31:54.200Z,97909.34
2022-08-31T14:35:57.908Z,97911.78
2022-08-31T14:40:07.670Z,97918.50
2022-08-31T14:44:14.055Z,97914.44
2022-08-31T14:48:21.029Z,97902.88
2022-08-31T14:52:26.230Z,97914.47
2022-08-31T14:56:33.247Z,97916.69
2022-08-31T15:00:51.208Z,97919.75
2022-08-31T15:05:00.375Z,97922.38
2022-08-31T15:09:05.985Z,97921.13
2022-08-31T15:13:09.808Z,97915.06
2022-08-31T15:17:19.710Z,97913.03
2022-08-31T15:21:28.849Z,97925.22
2022-08-31T15:25:32.477Z,97925.63
2022-08-31T15:29:44.361Z,97929.88
2022-08-31T15:33:50.836Z,97924.38
2022-08-31T15:38:01.304Z,97918.31
2022-08-31T15:42:09.625Z,97916.88
2022-08-31T15:46:14.936Z,97917.28
2022-08-31T15:50:21.204Z,97905.72
2022-08-31T15:54:34.868Z,97905.13
2022-08-31T15:58:39.102Z,97911.00
2022-08-31T16:02:43.326Z,97911.00
2022-08-31T16:06:46.731Z,97905.13
2022-08-31T16:10:51.867Z,97892.53
2022-08-31T16:14:55.342Z,97901.66
2022-08-31T16:18:59.155Z,97904.06
2022-08-31T16:23:03.258Z,97902.06
2022-08-31T16:27:09.882Z,97896.38
2022-08-31T16:31:15.056Z,97895.94
2022-08-31T16:35:20.257Z,97894.34
2022-08-31T16:39:27.885Z,97891.50
2022-08-31T16:43:33.969Z,97900.03
2022-08-31T16:47:37.905Z,97887.44
2022-08-31T16:51:44.575Z,97890.69
2022-08-31T17:00:16.899Z,97896.38
2022-08-31T17:04:48.089Z,97889.28
2022-08-31T17:17:33.615Z,97907.31
2022-08-31T17:21:36.955Z,97904.09
2022-08-31T17:25:44.858Z,97910.56
2022-08-31T17:29:52.660Z,97915.44
2022-08-31T17:33:58.759Z,97914.63
2022-08-31T17:38:03.372Z,97919.44
2022-08-31T17:42:07.293Z,97921.44
2022-08-31T17:46:13.953Z,97919.00
2022-08-31T17:50:21.837Z,97913.34
2022-08-31T17:54:30.694Z,97927.53
2022-08-31T17:58:34.660Z,97927.53
2022-08-31T18:02:38.506Z,97931.19
2022-08-31T18:06:45.601Z,97926.72
2022-08-31T18:10:53.349Z,97932.81
2022-08-31T18:14:59.059Z,97933.78
2022-08-31T18:19:02.224Z,97953.03
2022-08-31T18:23:07.474Z,97949.56
2022-08-31T18:27:15.829Z,97960.28
2022-08-31T18:31:21.275Z,97963.88
2022-08-31T18:35:30.348Z,97963.44
2022-08-31T18:40:00.091Z,97974.38
2022-08-31T18:44:22.642Z,97978.22
2022-08-31T18:48:27.917Z,97968.88
2022-08-31T18:52:32.930Z,97977.38
2022-08-31T18:56:37.779Z,97984.31
2022-08-31T19:00:42.090Z,97972.75
2022-08-31T19:04:46.563Z,97974.38
2022-08-31T19:08:51.167Z,97982.28
2022-08-31T19:12:56.816Z,97976.81
2022-08-31T19:17:03.688Z,97976.00
2022-08-31T19:21:19.590Z,97973.19
2022-08-31T19:25:23.717Z,97976.00
2022-08-31T19:29:31.544Z,97987.34
2022-08-31T19:33:35.419Z,97984.91
2022-08-31T19:37:40.650Z,97995.44
2022-08-31T19:41:52.217Z,97995.44
2022-08-31T19:46:09.675Z,97993.81
2022-08-31T19:50:14.168Z,98000.09
2022-08-31T19:54:19.002Z,98000.28
2022-08-31T19:58:26.547Z,98000.69
2022-08-31T20:02:31.889Z,98000.06
2022-08-31T20:06:35.969Z,97999.84
2022-08-31T20:10:44.262Z,98004.66
2022-08-31T20:14:49.189Z,98001.81
2022-08-31T20:18:56.349Z,97997.72
2022-08-31T20:23:01.145Z,97997.31
2022-08-31T20:27:10.783Z,97994.22
2022-08-31T20:31:15.350Z,98011.03
2022-08-31T20:35:20.721Z,98007.59
2022-08-31T20:39:28.003Z,97994.41
2022-08-31T20:48:17.501Z,97995.63
2022-08-31T21:46:22.521Z,97981.16
2022-08-31T21:50:29.161Z,97980.16
2022-08-31T21:54:32.833Z,97987.41
2022-08-31T21:58:36.749Z,97991.69
2022-08-31T22:02:47.036Z,97985.41
2022-08-31T22:06:50.998Z,97981.75
2022-08-31T22:10:55.509Z,97972.63
2022-08-31T22:15:00.302Z,97983.38
2022-08-31T22:19:12.360Z,97986.66
2022-08-31T22:23:15.832Z,97990.91
2022-08-31T22:27:19.726Z,97937.66
2022-08-31T22:31:25.489Z,97983.81
2022-08-31T22:35:30.799Z,97935.84
2022-08-31T22:39:36.904Z,97980.19
2022-08-31T22:43:41.761Z,97989.16
2022-08-31T22:47:49.851Z,97912.75
2022-08-31T22:51:59.549Z,97965.47
2022-08-31T22:56:14.692Z,97909.75
2022-08-31T23:00:20.854Z,97975.47
2022-08-31T23:04:35.232Z,97890.94
2022-08-31T23:08:41.851Z,97923.25
2022-08-31T23:12:52.672Z,97965.53
2022-08-31T23:17:04.473Z,97892.53
2022-08-31T23:21:11.467Z,97974.69
2022-08-31T23:25:18.568Z,97895.44
2022-08-31T23:29:27.335Z,97946.44
2022-08-31T23:33:31.470Z,97886.50
2022-08-31T23:37:35.482Z,97960.31
2022-08-31T23:41:41.405Z,97939.41
2022-08-31T23:45:45.776Z,97941.47
2022-08-31T23:49:51.895Z,97918.31
2022-08-31T23:53:57.682Z,97945.13
2022-08-31T23:58:14.451Z,97924.97
